sensor_id;sensor_type;location;lat;lon;timestamp;P1;durP1;ratioP1;P2;durP2;ratioP2
58581;SDS011;44361;51.476;5.700;2022-12-18T00:00:43;74.10;;;26.35;;
58581;SDS011;44361;51.476;5.700;2022-12-18T00:03:09;67.80;;;24.48;;
58581;SDS011;44361;51.476;5.700;2022-12-18T00:05:35;75.45;;;26.83;;
58581;SDS011;44361;51.476;5.700;2022-12-18T00:08:01;75.32;;;27.52;;
58581;SDS011;44361;51.476;5.700;2022-12-18T00:10:28;71.90;;;26.02;;
58581;SDS011;44361;51.476;5.700;2022-12-18T00:12:53;74.93;;;24.95;;
58581;SDS011;44361;51.476;5.700;2022-12-18T00:15:19;75.95;;;24.98;;
58581;SDS011;44361;51.476;5.700;2022-12-18T00:17:45;71.53;;;25.75;;
58581;SDS011;44361;51.476;5.700;2022-12-18T00:20:11;69.57;;;25.80;;
58581;SDS011;44361;51.476;5.700;2022-12-18T00:22:36;80.78;;;27.10;;
58581;SDS011;44361;51.476;5.700;2022-12-18T00:25:02;75.43;;;26.77;;
58581;SDS011;44361;51.476;5.700;2022-12-18T00:27:28;74.10;;;27.20;;
58581;SDS011;44361;51.476;5.700;2022-12-18T00:29:53;74.32;;;26.73;;
58581;SDS011;44361;51.476;5.700;2022-12-18T00:32:19;74.68;;;26.55;;
58581;SDS011;44361;51.476;5.700;2022-12-18T00:34:44;77.65;;;25.80;;
58581;SDS011;44361;51.476;5.700;2022-12-18T00:37:10;77.95;;;26.52;;
58581;SDS011;44361;51.476;5.700;2022-12-18T00:39:37;72.72;;;26.27;;
58581;SDS011;44361;51.476;5.700;2022-12-18T00:42:02;72.82;;;27.60;;
58581;SDS011;44361;51.476;5.700;2022-12-18T00:44:47;72.63;;;25.30;;
58581;SDS011;44361;51.476;5.700;2022-12-18T00:47:12;67.93;;;24.88;;
58581;SDS011;44361;51.476;5.700;2022-12-18T00:49:39;71.32;;;25.48;;
58581;SDS011;44361;51.476;5.700;2022-12-18T00:52:04;69.45;;;25.77;;
58581;SDS011;44361;51.476;5.700;2022-12-18T00:54:30;68.95;;;25.15;;
58581;SDS011;44361;51.476;5.700;2022-12-18T00:56:55;72.25;;;26.27;;
58581;SDS011;44361;51.476;5.700;2022-12-18T00:59:21;67.53;;;24.10;;
58581;SDS011;44361;51.476;5.700;2022-12-18T01:01:47;75.15;;;24.83;;
58581;SDS011;44361;51.476;5.700;2022-12-18T01:04:12;67.38;;;24.38;;
58581;SDS011;44361;51.476;5.700;2022-12-18T01:06:38;70.25;;;23.25;;
58581;SDS011;44361;51.476;5.700;2022-12-18T01:09:04;68.28;;;24.35;;
58581;SDS011;44361;51.476;5.700;2022-12-18T01:11:30;70.68;;;23.75;;
58581;SDS011;44361;51.476;5.700;2022-12-18T01:13:56;64.65;;;22.65;;
58581;SDS011;44361;51.476;5.700;2022-12-18T01:16:21;75.25;;;24.48;;
58581;SDS011;44361;51.476;5.700;2022-12-18T01:18:50;63.13;;;22.40;;
58581;SDS011;44361;51.476;5.700;2022-12-18T01:21:17;63.20;;;22.65;;
58581;SDS011;44361;51.476;5.700;2022-12-18T01:23:44;52.40;;;21.67;;
58581;SDS011;44361;51.476;5.700;2022-12-18T01:26:12;53.55;;;19.77;;
58581;SDS011;44361;51.476;5.700;2022-12-18T01:28:39;65.05;;;21.90;;
58581;SDS011;44361;51.476;5.700;2022-12-18T01:31:09;65.97;;;22.75;;
58581;SDS011;44361;51.476;5.700;2022-12-18T01:33:41;55.08;;;21.67;;
58581;SDS011;44361;51.476;5.700;2022-12-18T01:36:07;56.03;;;21.33;;
58581;SDS011;44361;51.476;5.700;2022-12-18T01:38:32;57.85;;;21.27;;
58581;SDS011;44361;51.476;5.700;2022-12-18T01:40:59;59.40;;;21.65;;
58581;SDS011;44361;51.476;5.700;2022-12-18T01:46:07;54.92;;;21.92;;
58581;SDS011;44361;51.476;5.700;2022-12-18T01:48:33;60.45;;;21.40;;
58581;SDS011;44361;51.476;5.700;2022-12-18T01:50:58;50.60;;;19.02;;
58581;SDS011;44361;51.476;5.700;2022-12-18T01:53:25;57.15;;;20.50;;
58581;SDS011;44361;51.476;5.700;2022-12-18T01:55:57;60.80;;;20.60;;
58581;SDS011;44361;51.476;5.700;2022-12-18T01:58:27;59.78;;;21.63;;
58581;SDS011;44361;51.476;5.700;2022-12-18T02:01:12;63.03;;;20.65;;
58581;SDS011;44361;51.476;5.700;2022-12-18T02:03:40;55.88;;;20.25;;
58581;SDS011;44361;51.476;5.700;2022-12-18T02:06:10;53.55;;;19.55;;
58581;SDS011;44361;51.476;5.700;2022-12-18T02:08:53;48.55;;;20.45;;
58581;SDS011;44361;51.476;5.700;2022-12-18T02:11:34;54.85;;;19.25;;
58581;SDS011;44361;51.476;5.700;2022-12-18T02:16:52;55.72;;;22.33;;
58581;SDS011;44361;51.476;5.700;2022-12-18T02:19:37;57.30;;;21.10;;
58581;SDS011;44361;51.476;5.700;2022-12-18T02:28:06;52.80;;;19.55;;
58581;SDS011;44361;51.476;5.700;2022-12-18T02:30:36;49.88;;;18.95;;
58581;SDS011;44361;51.476;5.700;2022-12-18T02:33:04;47.42;;;19.75;;
58581;SDS011;44361;51.476;5.700;2022-12-18T02:35:31;44.65;;;17.42;;
58581;SDS011;44361;51.476;5.700;2022-12-18T02:37:59;43.83;;;16.88;;
58581;SDS011;44361;51.476;5.700;2022-12-18T02:40:26;44.63;;;18.00;;
58581;SDS011;44361;51.476;5.700;2022-12-18T02:42:53;50.17;;;19.35;;
58581;SDS011;44361;51.476;5.700;2022-12-18T02:45:18;39.47;;;16.67;;
58581;SDS011;44361;51.476;5.700;2022-12-18T02:47:45;46.80;;;17.63;;
58581;SDS011;44361;51.476;5.700;2022-12-18T02:53:10;39.88;;;16.90;;
58581;SDS011;44361;51.476;5.700;2022-12-18T02:56:12;45.22;;;16.50;;
58581;SDS011;44361;51.476;5.700;2022-12-18T03:04:41;43.05;;;16.50;;
58581;SDS011;44361;51.476;5.700;2022-12-18T03:07:15;46.38;;;17.40;;
58581;SDS011;44361;51.476;5.700;2022-12-18T03:09:49;44.22;;;16.63;;
58581;SDS011;44361;51.476;5.700;2022-12-18T03:12:20;38.60;;;16.02;;
58581;SDS011;44361;51.476;5.700;2022-12-18T03:17:41;43.10;;;15.45;;
58581;SDS011;44361;51.476;5.700;2022-12-18T03:20:15;44.80;;;17.08;;
58581;SDS011;44361;51.476;5.700;2022-12-18T03:22:45;39.42;;;16.70;;
58581;SDS011;44361;51.476;5.700;2022-12-18T03:25:14;41.22;;;16.42;;
58581;SDS011;44361;51.476;5.700;2022-12-18T03:27:44;47.90;;;16.13;;
58581;SDS011;44361;51.476;5.700;2022-12-18T03:30:15;44.38;;;16.23;;
58581;SDS011;44361;51.476;5.700;2022-12-18T03:35:35;40.40;;;16.60;;
58581;SDS011;44361;51.476;5.700;2022-12-18T03:38:04;42.42;;;17.60;;
58581;SDS011;44361;51.476;5.700;2022-12-18T03:40:34;45.38;;;16.30;;
58581;SDS011;44361;51.476;5.700;2022-12-18T03:43:33;44.40;;;15.95;;
58581;SDS011;44361;51.476;5.700;2022-12-18T03:45:54;46.85;;;17.08;;
58581;SDS011;44361;51.476;5.700;2022-12-18T03:48:33;39.42;;;15.60;;
58581;SDS011;44361;51.476;5.700;2022-12-18T03:51:07;37.92;;;15.85;;
58581;SDS011;44361;51.476;5.700;2022-12-18T03:56:21;42.60;;;15.85;;
58581;SDS011;44361;51.476;5.700;2022-12-18T03:58:53;40.53;;;15.40;;
58581;SDS011;44361;51.476;5.700;2022-12-18T04:01:20;38.00;;;15.18;;
58581;SDS011;44361;51.476;5.700;2022-12-18T04:03:50;39.47;;;16.60;;
58581;SDS011;44361;51.476;5.700;2022-12-18T04:06:17;36.05;;;15.52;;
58581;SDS011;44361;51.476;5.700;2022-12-18T04:08:43;41.10;;;15.75;;
58581;SDS011;44361;51.476;5.700;2022-12-18T04:11:11;40.15;;;15.50;;
58581;SDS011;44361;51.476;5.700;2022-12-18T04:13:37;36.78;;;15.88;;
58581;SDS011;44361;51.476;5.700;2022-12-18T04:16:04;39.17;;;15.77;;
58581;SDS011;44361;51.476;5.700;2022-12-18T04:18:30;41.38;;;17.10;;
58581;SDS011;44361;51.476;5.700;2022-12-18T04:20:56;35.58;;;15.35;;
58581;SDS011;44361;51.476;5.700;2022-12-18T04:23:21;43.88;;;16.80;;
58581;SDS011;44361;51.476;5.700;2022-12-18T04:25:47;40.67;;;16.88;;
58581;SDS011;44361;51.476;5.700;2022-12-18T04:28:13;42.42;;;16.73;;
58581;SDS011;44361;51.476;5.700;2022-12-18T04:30:39;43.33;;;16.58;;
58581;SDS011;44361;51.476;5.700;2022-12-18T04:33:08;38.45;;;16.35;;
58581;SDS011;44361;51.476;5.700;2022-12-18T04:35:35;40.78;;;16.17;;
58581;SDS011;44361;51.476;5.700;2022-12-18T04:38:00;39.33;;;16.38;;
58581;SDS011;44361;51.476;5.700;2022-12-18T04:40:26;38.63;;;16.27;;
58581;SDS011;44361;51.476;5.700;2022-12-18T04:42:51;39.15;;;16.02;;
58581;SDS011;44361;51.476;5.700;2022-12-18T04:45:19;39.65;;;15.85;;
58581;SDS011;44361;51.476;5.700;2022-12-18T04:47:45;43.13;;;16.17;;
58581;SDS011;44361;51.476;5.700;2022-12-18T04:50:10;43.45;;;16.85;;
58581;SDS011;44361;51.476;5.700;2022-12-18T04:52:36;39.03;;;16.55;;
58581;SDS011;44361;51.476;5.700;2022-12-18T04:55:02;41.42;;;15.27;;
58581;SDS011;44361;51.476;5.700;2022-12-18T04:57:28;38.35;;;16.33;;
58581;SDS011;44361;51.476;5.700;2022-12-18T04:59:54;36.45;;;15.10;;
58581;SDS011;44361;51.476;5.700;2022-12-18T05:02:19;38.70;;;15.80;;
58581;SDS011;44361;51.476;5.700;2022-12-18T05:04:45;35.45;;;15.05;;
58581;SDS011;44361;51.476;5.700;2022-12-18T05:07:11;43.42;;;17.25;;
58581;SDS011;44361;51.476;5.700;2022-12-18T05:09:37;39.10;;;16.00;;
58581;SDS011;44361;51.476;5.700;2022-12-18T05:12:02;33.22;;;14.35;;
58581;SDS011;44361;51.476;5.700;2022-12-18T05:14:28;44.92;;;16.60;;
58581;SDS011;44361;51.476;5.700;2022-12-18T05:16:54;37.85;;;15.32;;
58581;SDS011;44361;51.476;5.700;2022-12-18T05:19:20;42.65;;;16.58;;
58581;SDS011;44361;51.476;5.700;2022-12-18T05:21:47;37.20;;;15.45;;
58581;SDS011;44361;51.476;5.700;2022-12-18T05:24:13;38.95;;;14.43;;
58581;SDS011;44361;51.476;5.700;2022-12-18T05:26:38;32.53;;;14.15;;
58581;SDS011;44361;51.476;5.700;2022-12-18T05:29:04;33.30;;;13.30;;
58581;SDS011;44361;51.476;5.700;2022-12-18T05:31:30;36.97;;;15.98;;
58581;SDS011;44361;51.476;5.700;2022-12-18T05:33:57;31.95;;;14.77;;
58581;SDS011;44361;51.476;5.700;2022-12-18T05:36:22;36.45;;;14.80;;
58581;SDS011;44361;51.476;5.700;2022-12-18T05:38:48;31.88;;;14.10;;
58581;SDS011;44361;51.476;5.700;2022-12-18T05:41:14;35.67;;;15.20;;
58581;SDS011;44361;51.476;5.700;2022-12-18T05:43:39;38.80;;;16.23;;
58581;SDS011;44361;51.476;5.700;2022-12-18T05:46:06;32.17;;;14.32;;
58581;SDS011;44361;51.476;5.700;2022-12-18T05:48:32;39.05;;;15.38;;
58581;SDS011;44361;51.476;5.700;2022-12-18T05:51:03;35.33;;;15.38;;
58581;SDS011;44361;51.476;5.700;2022-12-18T05:53:33;40.10;;;16.05;;
58581;SDS011;44361;51.476;5.700;2022-12-18T05:56:00;33.97;;;15.48;;
58581;SDS011;44361;51.476;5.700;2022-12-18T05:58:27;35.30;;;15.70;;
58581;SDS011;44361;51.476;5.700;2022-12-18T06:00:53;35.72;;;15.25;;
58581;SDS011;44361;51.476;5.700;2022-12-18T06:03:19;37.25;;;15.65;;
58581;SDS011;44361;51.476;5.700;2022-12-18T06:05:44;44.75;;;16.05;;
58581;SDS011;44361;51.476;5.700;2022-12-18T06:08:11;39.45;;;15.80;;
58581;SDS011;44361;51.476;5.700;2022-12-18T06:10:37;44.25;;;15.93;;
58581;SDS011;44361;51.476;5.700;2022-12-18T06:13:04;42.00;;;16.65;;
58581;SDS011;44361;51.476;5.700;2022-12-18T06:15:30;35.47;;;16.52;;
58581;SDS011;44361;51.476;5.700;2022-12-18T06:17:56;46.38;;;17.35;;
58581;SDS011;44361;51.476;5.700;2022-12-18T06:20:22;40.70;;;17.60;;
58581;SDS011;44361;51.476;5.700;2022-12-18T06:22:47;41.90;;;17.80;;
58581;SDS011;44361;51.476;5.700;2022-12-18T06:25:13;45.53;;;16.92;;
58581;SDS011;44361;51.476;5.700;2022-12-18T06:27:38;37.25;;;14.73;;
58581;SDS011;44361;51.476;5.700;2022-12-18T06:30:06;32.05;;;14.57;;
58581;SDS011;44361;51.476;5.700;2022-12-18T06:32:32;39.90;;;16.50;;
58581;SDS011;44361;51.476;5.700;2022-12-18T06:34:59;43.22;;;15.45;;
58581;SDS011;44361;51.476;5.700;2022-12-18T06:37:25;36.10;;;15.65;;
58581;SDS011;44361;51.476;5.700;2022-12-18T06:39:51;37.40;;;15.82;;
58581;SDS011;44361;51.476;5.700;2022-12-18T06:42:18;38.13;;;15.98;;
58581;SDS011;44361;51.476;5.700;2022-12-18T06:44:43;36.67;;;15.80;;
58581;SDS011;44361;51.476;5.700;2022-12-18T06:47:09;38.65;;;16.23;;
58581;SDS011;44361;51.476;5.700;2022-12-18T06:49:36;40.35;;;16.17;;
58581;SDS011;44361;51.476;5.700;2022-12-18T06:52:01;40.42;;;16.80;;
58581;SDS011;44361;51.476;5.700;2022-12-18T06:54:29;45.75;;;17.27;;
58581;SDS011;44361;51.476;5.700;2022-12-18T06:56:54;38.83;;;15.15;;
58581;SDS011;44361;51.476;5.700;2022-12-18T06:59:20;39.42;;;16.50;;
58581;SDS011;44361;51.476;5.700;2022-12-18T07:01:45;35.80;;;15.85;;
58581;SDS011;44361;51.476;5.700;2022-12-18T07:04:12;37.33;;;15.70;;
58581;SDS011;44361;51.476;5.700;2022-12-18T07:06:38;39.10;;;16.35;;
58581;SDS011;44361;51.476;5.700;2022-12-18T07:09:03;42.80;;;16.48;;
58581;SDS011;44361;51.476;5.700;2022-12-18T07:11:29;35.65;;;15.25;;
58581;SDS011;44361;51.476;5.700;2022-12-18T07:13:57;39.33;;;15.98;;
58581;SDS011;44361;51.476;5.700;2022-12-18T07:16:23;37.88;;;15.73;;
58581;SDS011;44361;51.476;5.700;2022-12-18T07:18:49;39.30;;;15.73;;
58581;SDS011;44361;51.476;5.700;2022-12-18T07:21:16;34.28;;;16.80;;
58581;SDS011;44361;51.476;5.700;2022-12-18T07:23:43;36.70;;;17.30;;
58581;SDS011;44361;51.476;5.700;2022-12-18T07:26:12;40.22;;;16.27;;
58581;SDS011;44361;51.476;5.700;2022-12-18T07:28:39;38.08;;;15.93;;
58581;SDS011;44361;51.476;5.700;2022-12-18T07:31:11;40.22;;;17.00;;
58581;SDS011;44361;51.476;5.700;2022-12-18T07:33:42;40.97;;;15.68;;
58581;SDS011;44361;51.476;5.700;2022-12-18T07:36:09;40.85;;;15.77;;
58581;SDS011;44361;51.476;5.700;2022-12-18T07:38:35;40.42;;;16.75;;
58581;SDS011;44361;51.476;5.700;2022-12-18T07:41:02;41.20;;;16.35;;
58581;SDS011;44361;51.476;5.700;2022-12-18T07:43:29;42.13;;;17.13;;
58581;SDS011;44361;51.476;5.700;2022-12-18T07:45:55;39.60;;;16.55;;
58581;SDS011;44361;51.476;5.700;2022-12-18T07:48:20;42.97;;;17.27;;
58581;SDS011;44361;51.476;5.700;2022-12-18T07:50:46;45.47;;;16.83;;
58581;SDS011;44361;51.476;5.700;2022-12-18T07:53:12;34.33;;;15.88;;
58581;SDS011;44361;51.476;5.700;2022-12-18T07:55:39;37.72;;;16.00;;
58581;SDS011;44361;51.476;5.700;2022-12-18T07:58:06;46.20;;;17.30;;
58581;SDS011;44361;51.476;5.700;2022-12-18T08:00:34;39.10;;;15.55;;
58581;SDS011;44361;51.476;5.700;2022-12-18T08:03:01;42.70;;;18.17;;
58581;SDS011;44361;51.476;5.700;2022-12-18T08:05:27;37.83;;;16.27;;
58581;SDS011;44361;51.476;5.700;2022-12-18T08:07:53;43.15;;;17.42;;
58581;SDS011;44361;51.476;5.700;2022-12-18T08:10:21;44.53;;;17.10;;
58581;SDS011;44361;51.476;5.700;2022-12-18T08:12:51;41.88;;;17.83;;
58581;SDS011;44361;51.476;5.700;2022-12-18T08:15:17;44.55;;;17.77;;
58581;SDS011;44361;51.476;5.700;2022-12-18T08:17:43;43.28;;;17.15;;
58581;SDS011;44361;51.476;5.700;2022-12-18T08:20:10;43.90;;;18.00;;
58581;SDS011;44361;51.476;5.700;2022-12-18T08:22:38;38.78;;;16.35;;
58581;SDS011;44361;51.476;5.700;2022-12-18T08:25:04;37.80;;;15.52;;
58581;SDS011;44361;51.476;5.700;2022-12-18T08:27:30;39.45;;;16.98;;
58581;SDS011;44361;51.476;5.700;2022-12-18T08:29:56;43.90;;;17.55;;
58581;SDS011;44361;51.476;5.700;2022-12-18T08:32:22;41.97;;;17.20;;
58581;SDS011;44361;51.476;5.700;2022-12-18T08:34:48;41.40;;;16.17;;
58581;SDS011;44361;51.476;5.700;2022-12-18T08:37:14;40.45;;;17.45;;
58581;SDS011;44361;51.476;5.700;2022-12-18T08:39:40;38.38;;;16.55;;
58581;SDS011;44361;51.476;5.700;2022-12-18T08:42:05;40.95;;;17.25;;
58581;SDS011;44361;51.476;5.700;2022-12-18T08:44:49;42.95;;;17.23;;
58581;SDS011;44361;51.476;5.700;2022-12-18T08:47:15;38.30;;;16.50;;
58581;SDS011;44361;51.476;5.700;2022-12-18T08:49:40;43.17;;;16.13;;
58581;SDS011;44361;51.476;5.700;2022-12-18T08:52:06;41.88;;;17.30;;
58581;SDS011;44361;51.476;5.700;2022-12-18T08:54:33;36.40;;;17.58;;
58581;SDS011;44361;51.476;5.700;2022-12-18T08:57:00;45.25;;;17.23;;
58581;SDS011;44361;51.476;5.700;2022-12-18T08:59:26;40.15;;;16.73;;
58581;SDS011;44361;51.476;5.700;2022-12-18T09:01:53;40.75;;;17.25;;
58581;SDS011;44361;51.476;5.700;2022-12-18T09:04:19;40.42;;;17.13;;
58581;SDS011;44361;51.476;5.700;2022-12-18T09:06:44;44.65;;;18.02;;
58581;SDS011;44361;51.476;5.700;2022-12-18T09:09:10;35.53;;;16.23;;
58581;SDS011;44361;51.476;5.700;2022-12-18T09:11:36;43.03;;;17.48;;
58581;SDS011;44361;51.476;5.700;2022-12-18T09:14:02;44.47;;;17.23;;
58581;SDS011;44361;51.476;5.700;2022-12-18T09:16:28;37.03;;;15.95;;
58581;SDS011;44361;51.476;5.700;2022-12-18T09:18:54;39.20;;;16.92;;
58581;SDS011;44361;51.476;5.700;2022-12-18T09:21:25;33.95;;;16.17;;
58581;SDS011;44361;51.476;5.700;2022-12-18T09:23:54;37.65;;;16.65;;
58581;SDS011;44361;51.476;5.700;2022-12-18T09:26:20;39.78;;;17.33;;
58581;SDS011;44361;51.476;5.700;2022-12-18T09:28:47;45.33;;;18.48;;
58581;SDS011;44361;51.476;5.700;2022-12-18T09:31:13;40.58;;;17.65;;
58581;SDS011;44361;51.476;5.700;2022-12-18T09:33:40;39.03;;;16.70;;
58581;SDS011;44361;51.476;5.700;2022-12-18T09:36:07;43.88;;;17.83;;
58581;SDS011;44361;51.476;5.700;2022-12-18T09:38:34;38.05;;;16.42;;
58581;SDS011;44361;51.476;5.700;2022-12-18T09:41:03;37.60;;;15.30;;
58581;SDS011;44361;51.476;5.700;2022-12-18T09:43:53;36.40;;;15.20;;
58581;SDS011;44361;51.476;5.700;2022-12-18T09:46:45;33.60;;;16.63;;
58581;SDS011;44361;51.476;5.700;2022-12-18T09:49:18;37.22;;;16.23;;
58581;SDS011;44361;51.476;5.700;2022-12-18T09:51:56;36.42;;;15.45;;
58581;SDS011;44361;51.476;5.700;2022-12-18T09:54:38;37.38;;;15.80;;
58581;SDS011;44361;51.476;5.700;2022-12-18T09:57:05;32.97;;;15.20;;
58581;SDS011;44361;51.476;5.700;2022-12-18T09:59:36;36.45;;;16.42;;
58581;SDS011;44361;51.476;5.700;2022-12-18T10:02:15;34.67;;;15.65;;
58581;SDS011;44361;51.476;5.700;2022-12-18T10:05:02;35.15;;;15.30;;
58581;SDS011;44361;51.476;5.700;2022-12-18T10:07:41;31.40;;;15.63;;
58581;SDS011;44361;51.476;5.700;2022-12-18T10:10:23;31.33;;;15.95;;
58581;SDS011;44361;51.476;5.700;2022-12-18T10:13:28;31.30;;;15.40;;
58581;SDS011;44361;51.476;5.700;2022-12-18T10:21:30;30.27;;;15.30;;
58581;SDS011;44361;51.476;5.700;2022-12-18T10:24:14;35.00;;;16.08;;
58581;SDS011;44361;51.476;5.700;2022-12-18T10:27:04;30.33;;;15.05;;
58581;SDS011;44361;51.476;5.700;2022-12-18T10:29:37;36.40;;;15.10;;
58581;SDS011;44361;51.476;5.700;2022-12-18T10:32:03;34.58;;;14.48;;
58581;SDS011;44361;51.476;5.700;2022-12-18T10:34:28;31.23;;;14.07;;
58581;SDS011;44361;51.476;5.700;2022-12-18T10:36:54;31.27;;;15.32;;
58581;SDS011;44361;51.476;5.700;2022-12-18T10:39:21;30.63;;;15.75;;
58581;SDS011;44361;51.476;5.700;2022-12-18T10:41:49;30.60;;;14.73;;
58581;SDS011;44361;51.476;5.700;2022-12-18T10:44:18;32.25;;;15.20;;
58581;SDS011;44361;51.476;5.700;2022-12-18T10:46:48;33.22;;;15.50;;
58581;SDS011;44361;51.476;5.700;2022-12-18T10:49:22;31.48;;;14.25;;
58581;SDS011;44361;51.476;5.700;2022-12-18T10:52:03;28.92;;;13.95;;
58581;SDS011;44361;51.476;5.700;2022-12-18T10:54:38;35.25;;;15.15;;
58581;SDS011;44361;51.476;5.700;2022-12-18T10:57:28;30.25;;;14.98;;
58581;SDS011;44361;51.476;5.700;2022-12-18T11:00:35;30.50;;;15.18;;
58581;SDS011;44361;51.476;5.700;2022-12-18T11:02:56;33.83;;;15.13;;
58581;SDS011;44361;51.476;5.700;2022-12-18T11:05:23;29.92;;;13.80;;
58581;SDS011;44361;51.476;5.700;2022-12-18T11:07:55;30.30;;;15.43;;
58581;SDS011;44361;51.476;5.700;2022-12-18T11:10:26;30.55;;;14.13;;
58581;SDS011;44361;51.476;5.700;2022-12-18T11:13:17;26.63;;;13.73;;
58581;SDS011;44361;51.476;5.700;2022-12-18T11:15:47;33.90;;;15.15;;
58581;SDS011;44361;51.476;5.700;2022-12-18T11:18:16;27.98;;;14.48;;
58581;SDS011;44361;51.476;5.700;2022-12-18T11:20:55;29.92;;;13.95;;
58581;SDS011;44361;51.476;5.700;2022-12-18T11:23:30;27.80;;;12.63;;
58581;SDS011;44361;51.476;5.700;2022-12-18T11:25:58;25.63;;;13.60;;
58581;SDS011;44361;51.476;5.700;2022-12-18T11:36:49;31.33;;;13.88;;
58581;SDS011;44361;51.476;5.700;2022-12-18T11:39:17;30.08;;;14.30;;
58581;SDS011;44361;51.476;5.700;2022-12-18T11:42:04;33.08;;;15.00;;
58581;SDS011;44361;51.476;5.700;2022-12-18T11:44:47;30.35;;;13.45;;
58581;SDS011;44361;51.476;5.700;2022-12-18T11:47:31;32.63;;;14.07;;
58581;SDS011;44361;51.476;5.700;2022-12-18T11:50:14;28.02;;;13.80;;
58581;SDS011;44361;51.476;5.700;2022-12-18T11:52:42;28.67;;;13.73;;
58581;SDS011;44361;51.476;5.700;2022-12-18T11:55:19;25.77;;;13.82;;
58581;SDS011;44361;51.476;5.700;2022-12-18T11:58:08;29.58;;;14.50;;
58581;SDS011;44361;51.476;5.700;2022-12-18T12:14:58;26.60;;;13.68;;
58581;SDS011;44361;51.476;5.700;2022-12-18T12:17:42;27.63;;;14.27;;
58581;SDS011;44361;51.476;5.700;2022-12-18T12:23:19;26.88;;;13.68;;
58581;SDS011;44361;51.476;5.700;2022-12-18T12:28:44;30.95;;;14.48;;
58581;SDS011;44361;51.476;5.700;2022-12-18T12:33:56;27.63;;;14.15;;
58581;SDS011;44361;51.476;5.700;2022-12-18T12:42:01;30.20;;;13.52;;
58581;SDS011;44361;51.476;5.700;2022-12-18T12:44:55;29.00;;;14.30;;
58581;SDS011;44361;51.476;5.700;2022-12-18T12:49:52;32.45;;;14.55;;
58581;SDS011;44361;51.476;5.700;2022-12-18T12:52:30;31.02;;;14.27;;
58581;SDS011;44361;51.476;5.700;2022-12-18T12:55:00;29.15;;;13.57;;
58581;SDS011;44361;51.476;5.700;2022-12-18T12:57:40;28.10;;;14.02;;
58581;SDS011;44361;51.476;5.700;2022-12-18T13:00:20;25.15;;;13.38;;
58581;SDS011;44361;51.476;5.700;2022-12-18T13:08:27;28.15;;;14.75;;
58581;SDS011;44361;51.476;5.700;2022-12-18T13:13:52;29.00;;;14.48;;
58581;SDS011;44361;51.476;5.700;2022-12-18T13:16:21;29.67;;;14.57;;
58581;SDS011;44361;51.476;5.700;2022-12-18T13:18:52;26.60;;;13.77;;
58581;SDS011;44361;51.476;5.700;2022-12-18T13:21:30;30.20;;;15.35;;
58581;SDS011;44361;51.476;5.700;2022-12-18T13:24:14;25.08;;;13.23;;
58581;SDS011;44361;51.476;5.700;2022-12-18T13:26:47;27.35;;;13.85;;
58581;SDS011;44361;51.476;5.700;2022-12-18T13:29:13;26.55;;;14.15;;
58581;SDS011;44361;51.476;5.700;2022-12-18T13:32:17;32.83;;;15.27;;
58581;SDS011;44361;51.476;5.700;2022-12-18T13:34:45;31.15;;;14.93;;
58581;SDS011;44361;51.476;5.700;2022-12-18T13:40:33;23.48;;;12.82;;
58581;SDS011;44361;51.476;5.700;2022-12-18T13:48:27;30.35;;;13.82;;
58581;SDS011;44361;51.476;5.700;2022-12-18T13:50:59;28.08;;;13.43;;
58581;SDS011;44361;51.476;5.700;2022-12-18T13:56:29;33.28;;;15.00;;
58581;SDS011;44361;51.476;5.700;2022-12-18T13:59:11;27.95;;;13.70;;
58581;SDS011;44361;51.476;5.700;2022-12-18T14:01:46;27.98;;;14.18;;
58581;SDS011;44361;51.476;5.700;2022-12-18T14:04:27;30.67;;;15.32;;
58581;SDS011;44361;51.476;5.700;2022-12-18T14:06:56;30.77;;;14.15;;
58581;SDS011;44361;51.476;5.700;2022-12-18T14:09:43;28.17;;;13.85;;
58581;SDS011;44361;51.476;5.700;2022-12-18T14:12:16;37.50;;;17.20;;
58581;SDS011;44361;51.476;5.700;2022-12-18T14:15:06;26.85;;;14.20;;
58581;SDS011;44361;51.476;5.700;2022-12-18T14:17:42;30.30;;;13.82;;
58581;SDS011;44361;51.476;5.700;2022-12-18T14:20:13;30.98;;;14.32;;
58581;SDS011;44361;51.476;5.700;2022-12-18T14:22:42;32.75;;;13.75;;
58581;SDS011;44361;51.476;5.700;2022-12-18T14:27:41;32.17;;;16.40;;
58581;SDS011;44361;51.476;5.700;2022-12-18T14:30:24;34.97;;;15.60;;
58581;SDS011;44361;51.476;5.700;2022-12-18T14:33:01;33.17;;;14.30;;
58581;SDS011;44361;51.476;5.700;2022-12-18T14:35:37;27.83;;;13.35;;
58581;SDS011;44361;51.476;5.700;2022-12-18T14:38:09;28.40;;;13.27;;
58581;SDS011;44361;51.476;5.700;2022-12-18T14:40:42;27.02;;;13.68;;
58581;SDS011;44361;51.476;5.700;2022-12-18T14:43:11;31.50;;;13.57;;
58581;SDS011;44361;51.476;5.700;2022-12-18T14:45:44;32.97;;;16.30;;
58581;SDS011;44361;51.476;5.700;2022-12-18T14:48:19;30.67;;;14.38;;
58581;SDS011;44361;51.476;5.700;2022-12-18T14:50:57;28.70;;;14.18;;
58581;SDS011;44361;51.476;5.700;2022-12-18T14:53:32;29.35;;;14.27;;
58581;SDS011;44361;51.476;5.700;2022-12-18T14:56:02;26.10;;;13.38;;
58581;SDS011;44361;51.476;5.700;2022-12-18T14:58:29;39.35;;;12.88;;
58581;SDS011;44361;51.476;5.700;2022-12-18T15:00:54;29.85;;;13.57;;
58581;SDS011;44361;51.476;5.700;2022-12-18T15:03:20;26.05;;;13.38;;
58581;SDS011;44361;51.476;5.700;2022-12-18T15:05:46;31.75;;;14.23;;
58581;SDS011;44361;51.476;5.700;2022-12-18T15:08:26;25.65;;;12.48;;
58581;SDS011;44361;51.476;5.700;2022-12-18T15:10:54;30.52;;;13.35;;
58581;SDS011;44361;51.476;5.700;2022-12-18T15:13:21;23.83;;;12.55;;
58581;SDS011;44361;51.476;5.700;2022-12-18T15:15:49;29.85;;;13.05;;
58581;SDS011;44361;51.476;5.700;2022-12-18T15:18:20;27.10;;;13.25;;
58581;SDS011;44361;51.476;5.700;2022-12-18T15:20:55;27.50;;;12.88;;
58581;SDS011;44361;51.476;5.700;2022-12-18T15:26:08;28.50;;;13.67;;
58581;SDS011;44361;51.476;5.700;2022-12-18T15:28:36;32.97;;;13.30;;
58581;SDS011;44361;51.476;5.700;2022-12-18T15:33:38;28.02;;;13.07;;
58581;SDS011;44361;51.476;5.700;2022-12-18T15:36:09;26.90;;;13.60;;
58581;SDS011;44361;51.476;5.700;2022-12-18T15:38:37;25.15;;;12.35;;
58581;SDS011;44361;51.476;5.700;2022-12-18T15:41:04;29.13;;;13.50;;
58581;SDS011;44361;51.476;5.700;2022-12-18T15:43:31;33.28;;;13.85;;
58581;SDS011;44361;51.476;5.700;2022-12-18T15:46:11;31.73;;;14.48;;
58581;SDS011;44361;51.476;5.700;2022-12-18T15:48:51;28.40;;;13.73;;
58581;SDS011;44361;51.476;5.700;2022-12-18T15:51:24;28.30;;;13.00;;
58581;SDS011;44361;51.476;5.700;2022-12-18T15:53:56;31.15;;;14.05;;
58581;SDS011;44361;51.476;5.700;2022-12-18T15:56:25;29.08;;;13.90;;
58581;SDS011;44361;51.476;5.700;2022-12-18T15:59:11;29.35;;;12.68;;
58581;SDS011;44361;51.476;5.700;2022-12-18T16:01:42;28.10;;;12.90;;
58581;SDS011;44361;51.476;5.700;2022-12-18T16:04:13;27.27;;;13.07;;
58581;SDS011;44361;51.476;5.700;2022-12-18T16:06:41;26.13;;;13.07;;
58581;SDS011;44361;51.476;5.700;2022-12-18T16:09:07;30.75;;;14.07;;
58581;SDS011;44361;51.476;5.700;2022-12-18T16:11:34;30.02;;;13.57;;
58581;SDS011;44361;51.476;5.700;2022-12-18T16:14:05;29.52;;;12.98;;
58581;SDS011;44361;51.476;5.700;2022-12-18T16:16:49;30.25;;;14.00;;
58581;SDS011;44361;51.476;5.700;2022-12-18T16:19:17;29.63;;;13.10;;